Time;durP1;ratioP1;P1;durP2;ratioP2;P2;SDS_P1;SDS_P2;PMS_P1;PMS_P2;Temp;Humidity;BMP_temperature;BMP_pressure;BME280_temperature;BME280_humidity;BME280_pressure;Samples;Min_cycle;Max_cycle;Signal;HPM_P1;HPM_P2
2021/10/16 00:01:43;;;;;;;6.18;3.40;;;;;;;13.79;43.84;101800.06;4994743;28;20387;-70
2021/10/16 00:04:10;;;;;;;6.90;3.55;;;;;;;13.77;43.85;101802.00;4993560;28;20054;-70
2021/10/16 00:06:37;;;;;;;7.47;3.30;;;;;;;13.75;43.94;101804.00;4992789;28;20046;-70
2021/10/16 00:09:04;;;;;;;8.18;3.15;;;;;;;13.70;43.78;101807.88;4989731;28;20074;-70
2021/10/16 00:11:30;;;;;;;7.35;3.40;;;;;;;13.68;43.94;101808.94;4977334;28;20050;-70
2021/10/16 00:13:57;;;;;;;6.00;3.22;;;;;;;13.66;44.08;101821.84;4994559;28;20108;-70
2021/10/16 00:16:24;;;;;;;6.78;2.90;;;;;;;13.63;44.07;101816.56;4974425;28;20050;-70
2021/10/16 00:18:51;;;;;;;7.32;3.50;;;;;;;13.62;43.91;101817.53;4994793;28;20077;-70
2021/10/16 00:21:18;;;;;;;7.13;3.45;;;;;;;13.58;44.23;101813.25;4979125;28;20055;-70
2021/10/16 00:23:46;;;;;;;5.75;3.17;;;;;;;13.58;43.99;101819.59;4988405;28;20046;-70
2021/10/16 00:26:14;;;;;;;6.75;3.03;;;;;;;13.56;44.24;101815.22;4993961;28;20049;-70
2021/10/16 00:28:41;;;;;;;6.80;3.90;;;;;;;13.53;43.99;101815.38;4993540;28;20053;-70
2021/10/16 00:31:08;;;;;;;5.38;2.78;;;;;;;13.52;43.93;101816.38;5000878;28;20046;-70
2021/10/16 00:33:48;;;;;;;6.32;2.90;;;;;;;13.53;44.31;101823.56;4998798;28;20085;-70
2021/10/16 00:36:14;;;;;;;7.22;3.22;;;;;;;13.47;44.28;101818.53;4993844;28;20081;-70
2021/10/16 00:38:41;;;;;;;5.97;2.75;;;;;;;13.46;44.05;101819.50;4992459;28;20516;-70
2021/10/16 00:41:11;;;;;;;5.82;3.35;;;;;;;13.43;44.32;101820.56;4986836;28;20051;-70
2021/10/16 00:43:39;;;;;;;5.28;3.00;;;;;;;13.42;44.03;101821.56;4992982;28;20046;-70
2021/10/16 00:46:06;;;;;;;6.57;3.30;;;;;;;13.40;44.29;101817.16;4993466;28;20061;-70
2021/10/16 00:48:33;;;;;;;5.72;3.10;;;;;;;13.38;44.05;101811.78;4992986;28;20055;-70
2021/10/16 00:51:00;;;;;;;4.80;3.15;;;;;;;13.36;44.36;101811.00;4993989;28;20385;-70
2021/10/16 00:53:26;;;;;;;6.40;3.15;;;;;;;13.34;44.57;101811.09;4989851;28;20078;-70
2021/10/16 00:55:54;;;;;;;4.53;2.63;;;;;;;13.32;44.20;101806.72;4993657;28;20505;-70
2021/10/16 00:58:23;;;;;;;5.43;2.85;;;;;;;13.31;44.13;101811.31;4991919;28;20401;-70
2021/10/16 01:00:49;;;;;;;6.13;2.88;;;;;;;13.28;44.04;101813.34;4993671;28;20092;-70
2021/10/16 01:03:16;;;;;;;5.72;2.70;;;;;;;13.27;44.01;101814.31;4987353;28;20566;-70
2021/10/16 01:05:43;;;;;;;5.50;2.90;;;;;;;13.24;44.13;101815.41;4993543;28;20141;-70
2021/10/16 01:08:10;;;;;;;7.53;3.05;;;;;;;13.23;44.17;101812.75;4991985;28;20058;-70
2021/10/16 01:10:38;;;;;;;4.95;2.63;;;;;;;13.21;44.04;101809.25;4993339;28;20052;-71
2021/10/16 01:13:06;;;;;;;5.05;2.70;;;;;;;13.20;44.34;101812.94;4974131;28;20051;-70
2021/10/16 01:15:33;;;;;;;4.55;2.70;;;;;;;13.17;44.15;101814.03;4988923;28;20050;-71
2021/10/16 01:18:01;;;;;;;7.72;2.58;;;;;;;13.15;44.18;101810.53;4981028;28;20474;-70
2021/10/16 01:20:29;;;;;;;5.22;2.65;;;;;;;13.13;44.26;101807.00;4993538;28;20481;-70
2021/10/16 01:22:58;;;;;;;6.05;2.47;;;;;;;13.12;44.08;101809.78;4988459;28;20097;-70
2021/10/16 01:25:25;;;;;;;5.75;2.25;;;;;;;13.09;44.30;101810.00;4993776;28;20141;-70
2021/10/16 01:27:52;;;;;;;6.28;2.65;;;;;;;13.08;44.00;101805.50;4986919;28;20105;-71
2021/10/16 01:30:21;;;;;;;5.43;2.88;;;;;;;13.07;44.06;101799.19;4993129;28;20062;-70
2021/10/16 01:32:48;;;;;;;6.25;2.67;;;;;;;13.03;44.42;101792.16;4990765;28;20051;-70
2021/10/16 01:35:16;;;;;;;5.75;2.85;;;;;;;13.03;44.08;101794.00;4993396;28;20046;-70
2021/10/16 01:37:46;;;;;;;5.20;2.80;;;;;;;13.02;44.37;101795.84;4990676;28;20057;-70
2021/10/16 01:40:13;;;;;;;4.38;2.50;;;;;;;12.98;44.50;101790.69;4993224;28;20077;-70
2021/10/16 01:42:44;;;;;;;6.25;3.10;;;;;;;12.95;43.93;101786.28;4990344;28;20089;-70
2021/10/16 01:45:16;;;;;;;6.53;2.67;;;;;;;12.94;44.18;101785.41;4990004;28;20105;-70
2021/10/16 01:47:54;;;;;;;5.75;2.70;;;;;;;12.91;44.09;101787.47;4979448;28;20077;-70
2021/10/16 01:50:22;;;;;;;5.40;2.80;;;;;;;12.89;44.50;101792.13;4989582;28;20138;-70
2021/10/16 01:52:49;;;;;;;5.07;2.60;;;;;;;12.86;44.01;101782.28;4985400;28;20153;-70
2021/10/16 01:55:16;;;;;;;6.22;2.47;;;;;;;12.84;44.26;101781.53;4990700;28;20312;-70
2021/10/16 01:57:44;;;;;;;4.57;2.45;;;;;;;12.82;44.22;101783.47;4992445;28;20129;-70
2021/10/16 02:00:12;;;;;;;5.22;2.30;;;;;;;12.81;44.26;101787.16;4986023;28;20395;-70
2021/10/16 02:02:38;;;;;;;6.18;2.30;;;;;;;12.80;44.54;101789.97;4992351;28;20050;-70
2021/10/16 02:05:07;;;;;;;4.90;2.85;;;;;;;12.78;44.30;101783.72;4990029;28;20050;-70
2021/10/16 02:07:34;;;;;;;5.60;2.33;;;;;;;12.76;44.42;101796.59;4991835;28;20042;-69
2021/10/16 02:10:00;;;;;;;5.68;2.40;;;;;;;12.73;44.52;101800.38;4971893;28;20074;-71
2021/10/16 02:12:27;;;;;;;5.25;2.80;;;;;;;12.71;44.48;101793.25;4990370;28;20448;-70
2021/10/16 02:14:54;;;;;;;4.82;2.53;;;;;;;12.69;44.67;101793.34;4990210;28;20614;-70
2021/10/16 02:17:20;;;;;;;5.28;2.65;;;;;;;12.69;44.78;101800.63;4991614;28;20097;-70
2021/10/16 02:19:47;;;;;;;5.50;2.25;;;;;;;12.64;44.38;101798.19;4988294;28;20089;-70
2021/10/16 02:22:14;;;;;;;6.32;2.70;;;;;;;12.64;44.50;101805.50;4991869;28;20058;-70
2021/10/16 02:24:40;;;;;;;4.47;2.30;;;;;;;12.63;44.59;101801.03;4991248;28;20087;-70
2021/10/16 02:27:07;;;;;;;4.65;2.80;;;;;;;12.61;44.60;101801.09;4991679;28;20042;-70
2021/10/16 02:29:34;;;;;;;5.32;2.45;;;;;;;12.60;44.78;101804.78;4988306;28;20069;-70
2021/10/16 02:32:00;;;;;;;5.40;2.40;;;;;;;12.60;44.67;101801.22;4991798;28;20386;-70
2021/10/16 02:34:27;;;;;;;6.35;2.83;;;;;;;12.57;44.40;101799.56;4991638;28;20068;-71
2021/10/16 02:36:54;;;;;;;4.18;2.50;;;;;;;12.56;44.50;101792.34;4992343;28;20046;-71
2021/10/16 02:39:21;;;;;;;4.65;2.50;;;;;;;12.55;44.55;101802.34;4989773;28;20142;-69
2021/10/16 02:41:48;;;;;;;5.38;2.53;;;;;;;12.55;44.71;101810.53;4994824;28;20042;-70
2021/10/16 02:44:14;;;;;;;4.30;2.30;;;;;;;12.53;44.67;101807.00;4989679;28;20062;-70
2021/10/16 02:46:41;;;;;;;5.53;2.50;;;;;;;12.52;44.57;101802.53;4990251;28;20393;-70
2021/10/16 02:49:08;;;;;;;4.88;2.40;;;;;;;12.51;44.60;101803.53;4980684;28;20100;-70
2021/10/16 02:51:35;;;;;;;5.85;2.67;;;;;;;12.49;44.35;101804.59;4991648;28;20115;-70
2021/10/16 02:54:01;;;;;;;5.72;2.75;;;;;;;12.48;44.88;101800.97;4999901;28;20046;-70
2021/10/16 02:56:28;;;;;;;4.35;2.28;;;;;;;12.47;44.64;101809.22;4990845;28;20082;-70
2021/10/16 02:58:55;;;;;;;4.65;3.05;;;;;;;12.45;44.79;101809.31;4981849;28;20129;-70
2021/10/16 03:01:21;;;;;;;5.60;2.53;;;;;;;12.44;44.64;101806.69;4990370;28;20110;-70
2021/10/16 03:03:48;;;;;;;7.30;2.47;;;;;;;12.43;44.70;101802.22;4990935;28;20129;-70
2021/10/16 03:06:15;;;;;;;5.30;2.42;;;;;;;12.42;44.60;101803.19;4990686;28;20049;-70
2021/10/16 03:08:42;;;;;;;5.03;2.30;;;;;;;12.40;44.61;101811.44;4991516;28;20073;-70
2021/10/16 03:11:09;;;;;;;6.47;2.47;;;;;;;12.38;44.68;101813.38;4990515;28;20054;-70
2021/10/16 03:13:36;;;;;;;4.25;2.30;;;;;;;12.37;44.69;101806.19;4989536;28;20050;-70
2021/10/16 03:16:03;;;;;;;4.45;2.40;;;;;;;12.36;44.54;101808.97;4988602;28;20058;-70
2021/10/16 03:18:30;;;;;;;4.72;2.22;;;;;;;12.34;44.80;101811.81;4989010;28;20050;-70
2021/10/16 03:20:57;;;;;;;4.47;2.13;;;;;;;12.33;44.48;101801.91;4987893;28;20042;-70
2021/10/16 03:23:24;;;;;;;4.57;2.30;;;;;;;12.33;44.50;101806.47;4987588;28;20072;-70
2021/10/16 03:25:51;;;;;;;3.88;2.08;;;;;;;12.30;44.50;101812.06;4987062;28;20494;-70
2021/10/16 03:28:18;;;;;;;4.88;2.50;;;;;;;12.28;44.66;101803.09;4988861;28;20489;-71
2021/10/16 03:30:45;;;;;;;5.63;2.47;;;;;;;12.26;44.39;101805.94;4987162;28;20054;-70
2021/10/16 03:33:11;;;;;;;4.13;2.13;;;;;;;12.26;44.50;101802.34;4991477;28;20057;-70
2021/10/16 03:35:38;;;;;;;5.10;2.35;;;;;;;12.23;44.50;101795.22;4988781;28;20065;-70
2021/10/16 03:38:05;;;;;;;5.13;2.22;;;;;;;12.22;44.73;101798.03;4991289;28;20038;-70
2021/10/16 03:40:32;;;;;;;4.63;2.42;;;;;;;12.21;44.52;101810.75;4986670;28;20049;-70
2021/10/16 03:42:59;;;;;;;5.90;2.38;;;;;;;12.19;44.45;101809.97;4991701;28;20129;-70
2021/10/16 03:45:26;;;;;;;4.32;2.40;;;;;;;12.16;44.39;101808.31;4989151;28;20046;-70
2021/10/16 03:47:53;;;;;;;5.82;2.70;;;;;;;12.14;44.61;101809.38;4990903;28;20039;-69
2021/10/16 03:50:19;;;;;;;4.72;2.60;;;;;;;12.13;44.42;101804.91;4971483;28;20058;-70
2021/10/16 03:52:46;;;;;;;4.10;2.15;;;;;;;12.10;44.62;101803.25;4995009;28;20084;-70
2021/10/16 03:55:13;;;;;;;5.20;3.08;;;;;;;12.09;44.37;101801.50;4992698;28;20065;-70
2021/10/16 03:57:39;;;;;;;5.78;3.05;;;;;;;12.07;44.28;101803.41;4994516;28;20049;-70
2021/10/16 04:00:15;;;;;;;4.80;2.70;;;;;;;12.06;44.61;101806.22;4992617;28;20137;-70
2021/10/16 04:02:46;;;;;;;5.97;2.70;;;;;;;12.03;44.07;101803.66;4989383;28;20050;-70
2021/10/16 04:05:14;;;;;;;5.88;2.80;;;;;;;12.01;44.36;101813.78;4990335;28;20413;-70
2021/10/16 04:07:41;;;;;;;4.22;2.40;;;;;;;11.99;44.51;101807.53;4976576;28;20478;-70
2021/10/16 04:10:08;;;;;;;5.57;2.55;;;;;;;11.97;44.15;101806.75;4992526;28;20049;-70
2021/10/16 04:12:35;;;;;;;4.50;2.60;;;;;;;11.95;44.38;101814.13;4994557;28;20054;-70
2021/10/16 04:15:03;;;;;;;5.15;2.70;;;;;;;11.93;44.37;101813.34;4994772;28;20469;-69
2021/10/16 04:17:29;;;;;;;6.15;2.47;;;;;;;11.91;44.64;101818.00;4994206;28;20133;-70
2021/10/16 04:19:56;;;;;;;4.57;2.40;;;;;;;11.89;44.42;101809.03;4992734;28;20090;-70
2021/10/16 04:22:22;;;;;;;5.30;2.60;;;;;;;11.88;44.69;101820.88;4994147;28;20086;-71
2021/10/16 04:24:49;;;;;;;4.65;2.25;;;;;;;11.87;44.59;101821.84;4994515;28;20054;-71
2021/10/16 04:27:16;;;;;;;3.95;2.20;;;;;;;11.85;44.46;101821.94;4993721;28;20054;-70
2021/10/16 04:29:43;;;;;;;4.90;2.20;;;;;;;11.85;44.49;101821.94;4976854;28;20054;-71
2021/10/16 04:32:09;;;;;;;4.95;2.30;;;;;;;11.83;44.52;101823.88;4973062;28;20046;-70
2021/10/16 04:34:36;;;;;;;4.45;2.35;;;;;;;11.81;44.44;101829.41;4994362;28;20058;-71
2021/10/16 04:37:03;;;;;;;6.30;2.70;;;;;;;11.80;44.52;101830.34;4993149;28;20046;-71
2021/10/16 04:39:30;;;;;;;4.65;2.20;;;;;;;11.79;44.66;101831.31;4976816;28;20560;-70
2021/10/16 04:41:57;;;;;;;4.82;2.53;;;;;;;11.77;44.51;101829.66;4992133;28;20061;-70
2021/10/16 04:44:25;;;;;;;5.32;2.30;;;;;;;11.75;44.46;101826.16;4983062;28;20101;-71
2021/10/16 04:46:53;;;;;;;3.85;2.20;;;;;;;11.72;44.29;101819.00;4992654;28;20042;-71
2021/10/16 04:49:19;;;;;;;5.75;2.58;;;;;;;11.70;44.75;101820.91;4990263;28;20057;-70
2021/10/16 04:51:46;;;;;;;4.88;2.15;;;;;;;11.70;44.59;101822.75;4988553;28;20050;-70
2021/10/16 04:54:13;;;;;;;5.50;2.38;;;;;;;11.69;44.68;101823.75;5005588;28;20096;-70
2021/10/16 04:56:40;;;;;;;4.22;2.40;;;;;;;11.66;44.79;101821.19;4993353;28;20050;-70
2021/10/16 04:59:07;;;;;;;4.10;2.30;;;;;;;11.66;44.55;101829.34;4992682;28;20042;-71
2021/10/16 05:01:33;;;;;;;5.72;2.50;;;;;;;11.62;44.59;101820.47;4991451;28;20077;-69
2021/10/16 05:04:00;;;;;;;4.75;2.72;;;;;;;11.61;44.65;101820.56;4993650;28;20047;-70
2021/10/16 05:06:32;;;;;;;6.05;2.40;;;;;;;11.62;44.63;101811.44;4993140;28;20070;-71
2021/10/16 05:08:59;;;;;;;4.97;2.65;;;;;;;11.58;44.85;101816.19;4993394;28;20073;-70
2021/10/16 05:11:25;;;;;;;3.80;2.35;;;;;;;11.57;44.67;101817.13;4993065;28;20054;-71
2021/10/16 05:13:52;;;;;;;4.78;2.47;;;;;;;11.56;44.75;101820.81;4990722;28;20046;-70
2021/10/16 05:16:19;;;;;;;5.38;2.92;;;;;;;11.55;44.73;101818.19;4993016;28;20422;-70
2021/10/16 05:18:46;;;;;;;3.45;2.25;;;;;;;11.53;44.49;101817.41;4993397;28;20137;-71
2021/10/16 05:21:13;;;;;;;4.47;2.40;;;;;;;11.52;44.67;101816.53;4993703;28;20093;-70
2021/10/16 05:23:39;;;;;;;5.40;2.38;;;;;;;11.50;44.71;101809.41;4993036;28;20055;-71
2021/10/16 05:26:06;;;;;;;4.82;2.53;;;;;;;11.48;44.81;101820.38;4992976;28;20050;-70
2021/10/16 05:28:55;;;;;;;4.60;2.33;;;;;;;11.47;44.96;101817.72;4991220;28;20046;-70
2021/10/16 05:31:23;;;;;;;5.00;2.40;;;;;;;11.43;44.83;101822.47;4993575;28;20050;-70
2021/10/16 05:33:50;;;;;;;5.53;2.33;;;;;;;11.41;44.86;101822.56;4993204;28;20085;-71
2021/10/16 05:36:16;;;;;;;6.75;2.38;;;;;;;11.39;45.17;101821.75;4992655;28;20671;-71
2021/10/16 05:38:43;;;;;;;5.47;2.63;;;;;;;11.38;44.94;101821.81;4992488;28;20054;-70
2021/10/16 05:41:10;;;;;;;4.03;2.15;;;;;;;11.38;45.15;101824.53;4973831;28;20058;-70
2021/10/16 05:43:39;;;;;;;6.00;2.50;;;;;;;11.35;44.94;101822.00;4989184;28;20108;-71
2021/10/16 05:46:06;;;;;;;4.72;2.50;;;;;;;11.35;44.84;101832.88;4992566;28;20073;-70
2021/10/16 05:48:33;;;;;;;5.35;2.40;;;;;;;11.34;45.00;101825.69;4992750;28;20823;-71
2021/10/16 05:50:59;;;;;;;6.15;2.85;;;;;;;11.33;45.10;101830.25;4993290;28;20116;-71
2021/10/16 05:53:26;;;;;;;5.65;2.60;;;;;;;11.32;45.00;101830.31;4992457;28;20134;-71
2021/10/16 05:55:53;;;;;;;7.30;2.42;;;;;;;11.31;45.13;101831.28;4994121;28;20077;-71
2021/10/16 05:58:20;;;;;;;4.38;2.17;;;;;;;11.30;45.09;101826.81;4972870;28;20050;-70
2021/10/16 06:00:47;;;;;;;4.50;2.80;;;;;;;11.29;45.12;101827.75;5002447;28;20457;-71
2021/10/16 06:03:13;;;;;;;4.68;2.33;;;;;;;11.27;45.23;101833.31;4991495;28;20066;-71
2021/10/16 06:05:41;;;;;;;5.07;2.50;;;;;;;11.27;45.26;101840.59;4990709;28;20054;-70
2021/10/16 06:08:07;;;;;;;5.47;2.35;;;;;;;11.25;45.19;101837.94;4990514;28;20509;-70
2021/10/16 06:10:34;;;;;;;8.68;2.70;;;;;;;11.25;45.16;101846.09;4992054;28;20057;-70
2021/10/16 06:13:01;;;;;;;3.72;2.15;;;;;;;11.26;45.12;101841.53;4991926;28;20046;-70
2021/10/16 06:15:28;;;;;;;4.60;2.15;;;;;;;11.24;45.28;101847.06;4991889;28;20062;-69
2021/10/16 06:17:55;;;;;;;4.78;2.50;;;;;;;11.24;45.31;101844.34;4974422;28;20173;-70
2021/10/16 06:20:22;;;;;;;6.95;2.55;;;;;;;11.22;45.39;101842.66;4992599;28;20529;-70
2021/10/16 06:22:49;;;;;;;5.40;2.50;;;;;;;11.20;45.29;101845.44;4993619;28;20054;-69
2021/10/16 06:25:16;;;;;;;4.25;2.50;;;;;;;11.21;45.32;101846.31;4996667;28;20035;-69
2021/10/16 06:27:43;;;;;;;6.65;2.70;;;;;;;11.19;45.35;101843.72;4991542;28;20125;-69
2021/10/16 06:30:10;;;;;;;5.03;2.55;;;;;;;11.19;45.28;101851.00;4992225;28;20054;-69
2021/10/16 06:32:36;;;;;;;5.53;2.70;;;;;;;11.17;45.45;101847.47;4992103;28;20043;-72
2021/10/16 06:35:05;;;;;;;5.50;2.67;;;;;;;11.17;45.44;101845.63;4991973;28;20057;-70
2021/10/16 06:37:32;;;;;;;5.88;2.67;;;;;;;11.16;45.47;101854.75;4990841;28;20042;-70
2021/10/16 06:39:58;;;;;;;5.70;2.80;;;;;;;11.15;45.59;101852.09;4991826;28;20082;-70
2021/10/16 06:42:25;;;;;;;5.05;2.67;;;;;;;11.15;45.49;101852.09;4991370;28;20458;-70
2021/10/16 06:44:52;;;;;;;6.38;2.88;;;;;;;11.14;45.63;101853.94;4991717;28;20050;-69
2021/10/16 06:47:19;;;;;;;4.53;2.90;;;;;;;11.15;45.73;101865.69;4991031;28;20046;-70
2021/10/16 06:49:46;;;;;;;5.90;2.80;;;;;;;11.14;45.59;101864.81;4991750;28;20060;-70
2021/10/16 06:52:13;;;;;;;5.35;2.83;;;;;;;11.16;45.82;101867.44;4992295;28;20058;-69
2021/10/16 06:54:42;;;;;;;6.18;2.88;;;;;;;11.16;45.98;101876.47;4991747;28;20082;-69
2021/10/16 06:57:09;;;;;;;5.60;2.58;;;;;;;11.16;45.94;101875.59;4991135;28;20097;-70
2021/10/16 06:59:36;;;;;;;5.22;2.53;;;;;;;11.16;46.01;101876.47;4991811;28;20564;-69
2021/10/16 07:02:02;;;;;;;4.63;2.45;;;;;;;11.18;46.00;101885.44;4989395;28;20108;-70
2021/10/16 07:04:29;;;;;;;4.85;2.50;;;;;;;11.20;45.98;101879.94;4991850;28;20108;-69
2021/10/16 07:06:57;;;;;;;5.45;2.85;;;;;;;11.20;46.02;101874.50;4990877;28;20378;-70
2021/10/16 07:09:23;;;;;;;5.75;2.88;;;;;;;11.21;46.13;101887.09;4991376;28;20129;-69
2021/10/16 07:11:50;;;;;;;5.85;2.88;;;;;;;11.22;46.30;101878.88;4992040;28;20449;-70
2021/10/16 07:14:17;;;;;;;5.30;3.10;;;;;;;11.23;46.27;101885.19;4991441;28;20616;-69
2021/10/16 07:16:44;;;;;;;4.53;2.72;;;;;;;11.25;46.53;101889.59;4991544;28;20060;-69
2021/10/16 07:19:11;;;;;;;5.68;3.00;;;;;;;11.26;46.26;101885.91;4991275;28;20090;-69
2021/10/16 07:21:37;;;;;;;6.18;3.20;;;;;;;11.29;46.32;101893.88;4991665;28;20053;-68
2021/10/16 07:24:05;;;;;;;6.25;2.78;;;;;;;11.30;46.61;101890.22;4991801;28;20055;-69
2021/10/16 07:26:32;;;;;;;6.28;3.42;;;;;;;11.33;46.86;101897.34;4994939;28;20113;-69
2021/10/16 07:28:59;;;;;;;8.98;4.65;;;;;;;11.36;46.81;101886.31;4994610;28;20057;-69
2021/10/16 07:31:28;;;;;;;8.52;4.05;;;;;;;11.39;46.59;101894.28;4995292;28;20053;-69
2021/10/16 07:33:56;;;;;;;9.88;5.00;;;;;;;11.40;46.67;101896.91;4995088;28;20512;-70
2021/10/16 07:36:24;;;;;;;11.63;4.68;;;;;;;11.42;46.71;101892.28;4994694;28;20145;-70
2021/10/16 07:38:51;;;;;;;8.85;5.07;;;;;;;11.44;46.57;101895.81;4992181;28;20039;-70
2021/10/16 07:41:18;;;;;;;8.73;4.82;;;;;;;11.46;46.79;101892.97;4994021;28;20421;-70
2021/10/16 07:43:45;;;;;;;8.95;4.93;;;;;;;11.47;46.84;101897.47;4994711;28;20042;-70
2021/10/16 07:46:11;;;;;;;8.00;4.18;;;;;;;11.49;46.91;101894.66;4990160;28;20057;-70
2021/10/16 07:48:38;;;;;;;8.13;4.05;;;;;;;11.51;46.99;101899.06;4994169;28;20053;-70
2021/10/16 07:51:05;;;;;;;8.82;4.72;;;;;;;11.53;47.07;101899.00;4994842;28;20050;-70
2021/10/16 07:53:32;;;;;;;7.85;4.40;;;;;;;11.56;47.19;101906.97;4996792;28;20042;-70
2021/10/16 07:56:06;;;;;;;8.73;4.57;;;;;;;11.62;47.71;101906.63;4994179;28;20064;-70
2021/10/16 07:58:34;;;;;;;10.55;4.63;;;;;;;11.62;47.14;101903.91;4995028;28;20050;-70
2021/10/16 08:01:01;;;;;;;8.57;4.35;;;;;;;11.67;47.04;101907.28;4987373;28;20050;-70
2021/10/16 08:03:28;;;;;;;7.93;4.43;;;;;;;11.69;47.52;101908.97;4995084;28;20058;-70
2021/10/16 08:05:55;;;;;;;8.93;5.22;;;;;;;11.75;47.33;101908.66;4994271;28;20084;-70
2021/10/16 08:08:22;;;;;;;8.68;5.38;;;;;;;11.80;47.26;101902.94;4994036;28;20469;-70
2021/10/16 08:10:49;;;;;;;8.98;5.28;;;;;;;11.83;47.37;101902.78;4989776;28;20434;-70
2021/10/16 08:13:15;;;;;;;10.27;5.65;;;;;;;11.88;47.59;101905.22;4994702;28;20054;-70
2021/10/16 08:15:43;;;;;;;8.93;5.18;;;;;;;11.93;47.69;101908.59;4993890;28;20468;-70
2021/10/16 08:18:09;;;;;;;10.95;6.10;;;;;;;11.97;47.71;101907.44;4994068;28;20046;-69
2021/10/16 08:20:36;;;;;;;9.57;6.00;;;;;;;12.02;47.51;101908.97;4988518;28;20057;-70
2021/10/16 08:23:05;;;;;;;12.13;6.43;;;;;;;12.06;47.61;101904.22;4993851;28;20058;-70
2021/10/16 08:25:33;;;;;;;11.45;6.25;;;;;;;12.12;47.89;101910.19;4993562;28;20097;-70
2021/10/16 08:28:11;;;;;;;13.25;7.20;;;;;;;12.18;48.51;101909.84;4993467;28;20497;-70
2021/10/16 08:30:41;;;;;;;13.00;7.35;;;;;;;12.20;48.01;101904.28;4993717;28;20070;-70
2021/10/16 08:33:07;;;;;;;12.48;6.57;;;;;;;12.24;47.89;101914.06;4994415;28;20047;-70
2021/10/16 08:35:34;;;;;;;12.25;6.88;;;;;;;12.29;47.63;101905.63;4977694;28;20050;-70
2021/10/16 08:38:01;;;;;;;15.38;8.00;;;;;;;12.34;47.84;101908.97;4993900;28;20050;-70
2021/10/16 08:40:48;;;;;;;11.68;7.45;;;;;;;12.39;48.46;101913.19;4994175;28;20068;-70
2021/10/16 08:43:15;;;;;;;10.90;7.18;;;;;;;12.41;47.78;101918.53;4989801;28;20050;-70
2021/10/16 08:45:42;;;;;;;12.13;7.70;;;;;;;12.45;47.67;101906.50;4990113;28;20047;-70
2021/10/16 08:48:11;;;;;;;11.45;6.30;;;;;;;12.49;47.98;101914.41;4991068;28;20061;-69
2021/10/16 08:50:38;;;;;;;13.38;6.97;;;;;;;12.52;47.98;101908.78;4993618;28;20379;-70
2021/10/16 08:53:05;;;;;;;16.25;8.45;;;;;;;12.56;48.05;101910.34;4989426;28;20050;-70
2021/10/16 08:55:32;;;;;;;16.27;8.40;;;;;;;12.60;47.85;101907.47;4977103;28;20109;-70
2021/10/16 08:57:59;;;;;;;15.38;8.20;;;;;;;12.63;47.99;101912.72;4989808;28;20137;-70
2021/10/16 09:00:49;;;;;;;13.77;7.53;;;;;;;12.67;48.25;101906.13;4992823;28;20061;-71
2021/10/16 09:03:34;;;;;;;17.25;9.07;;;;;;;12.70;48.48;101904.09;4991011;28;20551;-70
2021/10/16 09:06:03;;;;;;;15.68;8.70;;;;;;;12.70;47.82;101912.25;4990035;28;20058;-70
2021/10/16 09:08:34;;;;;;;14.35;8.18;;;;;;;12.76;48.20;101908.31;4987721;28;20054;-70
2021/10/16 09:11:27;;;;;;;15.55;8.48;;;;;;;12.77;48.68;101908.19;4975787;28;20081;-70
2021/10/16 09:13:58;;;;;;;16.45;8.18;;;;;;;12.79;48.16;101910.84;4992153;28;20054;-70
2021/10/16 09:16:33;;;;;;;16.65;8.90;;;;;;;12.85;48.59;101911.34;4991747;28;20113;-70
2021/10/16 09:19:02;;;;;;;16.15;8.35;;;;;;;12.87;48.43;101901.25;4992397;28;20120;-70
2021/10/16 09:21:31;;;;;;;17.35;8.65;;;;;;;12.90;48.23;101902.91;4984646;28;20137;-70
2021/10/16 09:24:07;;;;;;;15.15;8.65;;;;;;;12.96;48.67;101908.00;4988949;28;20493;-70
2021/10/16 09:26:36;;;;;;;16.38;8.93;;;;;;;12.99;48.11;101912.41;4990693;28;20148;-70
2021/10/16 09:29:05;;;;;;;18.85;9.23;;;;;;;13.02;48.27;101912.19;4991781;28;20050;-70
2021/10/16 09:31:43;;;;;;;15.77;8.73;;;;;;;13.01;48.08;101903.16;4989883;28;20050;-70
2021/10/16 09:34:10;;;;;;;14.48;7.97;;;;;;;13.03;47.85;101909.38;4993401;28;20054;-70
2021/10/16 09:36:39;;;;;;;13.57;7.68;;;;;;;13.08;48.23;101914.56;4979337;28;20078;-70
2021/10/16 09:39:17;;;;;;;19.92;10.05;;;;;;;13.12;48.59;101908.81;4988649;28;20039;-70
2021/10/16 09:41:46;;;;;;;15.27;7.85;;;;;;;13.13;48.13;101912.44;4987900;28;20074;-70
2021/10/16 09:44:40;;;;;;;17.10;9.32;;;;;;;13.14;48.72;101916.94;4995855;28;20062;-70
2021/10/16 09:47:18;;;;;;;15.95;9.30;;;;;;;13.19;48.72;101918.41;4990242;28;20446;-70
2021/10/16 09:49:57;;;;;;;18.92;9.65;;;;;;;13.21;48.52;101924.66;5005534;28;20476;-70
2021/10/16 09:52:35;;;;;;;18.02;10.02;;;;;;;13.25;48.89;101920.78;4989933;28;20116;-71
2021/10/16 09:55:04;;;;;;;17.48;10.07;;;;;;;13.27;48.55;101921.56;4989320;28;20120;-70
2021/10/16 09:57:31;;;;;;;16.05;9.02;;;;;;;13.31;48.59;101919.53;4991010;28;20437;-71
2021/10/16 09:59:59;;;;;;;20.50;10.70;;;;;;;13.34;48.51;101919.34;4992393;28;20446;-70
2021/10/16 10:02:31;;;;;;;18.42;9.77;;;;;;;13.39;48.68;101919.94;4966014;28;20056;-70
2021/10/16 10:05:01;;;;;;;15.88;9.70;;;;;;;13.42;48.67;101925.22;4984093;28;20046;-70
2021/10/16 10:07:29;;;;;;;18.45;9.60;;;;;;;13.46;48.47;101926.75;4992063;28;20046;-70
2021/10/16 10:09:58;;;;;;;19.38;10.43;;;;;;;13.51;48.41;101921.00;4991348;28;20507;-70
2021/10/16 10:12:26;;;;;;;20.95;10.43;;;;;;;13.54;48.88;101926.28;4986888;28;20078;-70
2021/10/16 10:14:53;;;;;;;17.48;9.93;;;;;;;13.59;48.66;101930.47;4979245;28;20050;-70
2021/10/16 10:17:32;;;;;;;18.80;11.30;;;;;;;13.66;48.89;101925.53;4988965;28;20100;-70
2021/10/16 10:20:10;;;;;;;18.85;10.27;;;;;;;13.71;48.88;101928.84;4989512;28;20054;-71
2021/10/16 10:22:38;;;;;;;17.90;10.25;;;;;;;13.74;48.49;101922.31;4994585;28;20042;-70
2021/10/16 10:25:24;;;;;;;15.85;9.50;;;;;;;13.81;49.03;101920.97;4992191;28;20050;-70
2021/10/16 10:27:53;;;;;;;18.42;10.18;;;;;;;13.84;48.93;101918.88;4993840;28;20038;-71
2021/10/16 10:30:36;;;;;;;16.67;9.38;;;;;;;13.93;48.96;101918.31;4982464;28;20050;-70
2021/10/16 10:33:15;;;;;;;21.73;10.35;;;;;;;13.99;49.03;101915.22;4979814;28;20051;-70
2021/10/16 10:36:07;;;;;;;17.48;10.43;;;;;;;14.03;49.23;101913.13;4988408;28;20689;-70
2021/10/16 10:38:37;;;;;;;16.38;9.15;;;;;;;14.12;48.67;101915.28;4980031;28;20378;-70
2021/10/16 10:41:23;;;;;;;19.25;9.75;;;;;;;14.20;49.51;101915.66;4983736;28;20097;-70
2021/10/16 10:43:53;;;;;;;19.92;10.25;;;;;;;14.30;49.62;101914.09;4982957;28;20043;-70
2021/10/16 10:46:28;;;;;;;16.10;8.75;;;;;;;14.40;49.47;101898.88;4973017;28;20123;-70
2021/10/16 10:49:07;;;;;;;16.17;9.57;;;;;;;14.51;49.76;101898.16;4987585;28;20482;-70
2021/10/16 10:51:38;;;;;;;15.68;9.00;;;;;;;14.59;49.55;101897.63;4990917;28;20100;-71
2021/10/16 10:54:16;;;;;;;18.88;10.25;;;;;;;14.72;49.59;101901.31;4988360;28;20052;-70
2021/10/16 10:56:47;;;;;;;15.73;9.52;;;;;;;14.81;49.47;101904.31;4970090;28;20120;-70
2021/10/16 10:59:16;;;;;;;18.10;9.70;;;;;;;14.93;49.29;101897.09;4989667;28;20065;-70
2021/10/16 11:01:45;;;;;;;18.15;9.63;;;;;;;15.03;49.12;101886.41;4993085;28;20049;-70
2021/10/16 11:04:32;;;;;;;15.23;9.48;;;;;;;15.16;49.11;101896.38;4985819;28;20049;-70
2021/10/16 11:07:01;;;;;;;18.50;9.60;;;;;;;15.26;49.42;101888.41;4989697;28;20080;-71
2021/10/16 11:09:28;;;;;;;18.00;9.38;;;;;;;15.39;49.16;101885.72;4984986;28;20064;-70
2021/10/16 11:11:55;;;;;;;20.02;10.77;;;;;;;15.50;49.30;101886.69;4986755;28;20046;-70
2021/10/16 11:14:29;;;;;;;17.83;10.27;;;;;;;15.67;48.90;101881.91;4991113;28;20046;-71
2021/10/16 11:16:59;;;;;;;16.00;9.27;;;;;;;15.77;48.73;101891.22;4989473;28;20050;-71
2021/10/16 11:19:26;;;;;;;18.02;9.68;;;;;;;15.87;48.80;101884.97;4970528;28;20421;-70
2021/10/16 11:21:57;;;;;;;21.15;11.02;;;;;;;16.01;48.63;101880.31;4973920;28;20470;-71
2021/10/16 11:24:26;;;;;;;21.10;11.63;;;;;;;16.12;48.36;101867.59;4970836;28;20101;-71
2021/10/16 11:26:57;;;;;;;17.45;9.73;;;;;;;16.25;48.71;101875.78;4986704;28;20105;-70
2021/10/16 11:29:38;;;;;;;20.63;11.70;;;;;;;16.37;48.53;101874.88;4988911;28;20133;-68